createdAt,value
2018-05-01T00:00:10.056Z,1015.00212284
2018-05-01T00:00:22.466Z,1015.00212284
2018-05-01T00:00:34.900Z,1015.00212284
2018-05-01T00:00:47.340Z,1015.00212284
2018-05-01T00:00:59.768Z,1015.00212284
2018-05-01T00:01:12.216Z,1015.06985061
2018-05-01T00:01:24.667Z,1015.06985061
2018-05-01T00:01:37.164Z,1015.06985061
2018-05-01T00:01:49.608Z,1015.06985061
2018-05-01T00:02:02.038Z,1015.17144225
2018-05-01T00:02:14.512Z,1015.17144225
2018-05-01T00:02:26.928Z,1015.17144225
2018-05-01T00:02:39.484Z,1015.17144225
2018-05-01T00:02:51.930Z,1015.17144225
2018-05-01T00:03:04.366Z,1015.30689778
2018-05-01T00:03:16.802Z,1015.30689778
2018-05-01T00:03:29.218Z,1015.30689778
2018-05-01T00:03:41.628Z,1015.30689778
2018-05-01T00:03:54.044Z,1015.30689778
2018-05-01T00:04:06.467Z,1015.34076166
2018-05-01T00:04:18.898Z,1015.34076166
2018-05-01T00:04:31.484Z,1015.34076166
2018-05-01T00:04:43.896Z,1015.34076166
2018-05-01T00:04:56.311Z,1015.34076166
2018-05-01T00:05:08.733Z,1015.34076166
2018-05-01T00:05:21.144Z,1015.34076166
2018-05-01T00:05:33.563Z,1015.34076166
2018-05-01T00:05:45.985Z,1015.34076166
2018-05-01T00:05:58.421Z,1015.34076166
2018-05-01T00:06:10.842Z,1015.40848942
2018-05-01T00:06:23.290Z,1015.40848942
2018-05-01T00:06:35.697Z,1015.40848942
2018-05-01T00:06:48.138Z,1015.40848942
2018-05-01T00:07:00.608Z,1015.40848942
2018-05-01T00:07:13.031Z,1015.47621718
2018-05-01T00:07:25.485Z,1015.47621718
2018-05-01T00:07:37.915Z,1015.47621718
2018-05-01T00:07:50.347Z,1015.47621718
2018-05-01T00:08:02.774Z,1015.4423533
2018-05-01T00:08:15.198Z,1015.4423533
2018-05-01T00:08:27.628Z,1015.4423533
2018-05-01T00:08:40.045Z,1015.4423533
2018-05-01T00:08:52.451Z,1015.4423533
2018-05-01T00:09:04.846Z,1015.51008107
2018-05-01T00:09:17.253Z,1015.51008107
2018-05-01T00:09:29.717Z,1015.51008107
2018-05-01T00:09:42.131Z,1015.51008107
2018-05-01T00:09:54.616Z,1015.51008107
2018-05-01T00:10:07.030Z,1015.47621718
2018-05-01T00:10:19.436Z,1015.47621718
2018-05-01T00:10:31.840Z,1015.47621718
2018-05-01T00:10:44.240Z,1015.47621718
2018-05-01T00:10:56.645Z,1015.47621718
2018-05-01T00:11:09.052Z,1015.61167271
2018-05-01T00:11:21.471Z,1015.61167271
2018-05-01T00:11:33.901Z,1015.61167271
2018-05-01T00:11:46.321Z,1015.61167271
2018-05-01T00:11:58.804Z,1015.61167271
2018-05-01T00:12:11.250Z,1015.54394495
2018-05-01T00:12:23.680Z,1015.54394495
2018-05-01T00:12:36.096Z,1015.54394495
2018-05-01T00:12:48.502Z,1015.54394495
2018-05-01T00:13:00.924Z,1015.61167271
2018-05-01T00:13:13.338Z,1015.61167271
2018-05-01T00:13:25.748Z,1015.61167271
2018-05-01T00:13:38.158Z,1015.61167271
2018-05-01T00:13:50.562Z,1015.61167271
2018-05-01T00:14:02.968Z,1015.64553659
2018-05-01T00:14:15.386Z,1015.64553659
2018-05-01T00:14:27.828Z,1015.64553659
2018-05-01T00:14:40.239Z,1015.64553659
2018-05-01T00:14:52.638Z,1015.64553659
2018-05-01T00:15:05.049Z,1015.54394495
2018-05-01T00:15:17.480Z,1015.54394495
2018-05-01T00:15:29.880Z,1015.54394495
2018-05-01T00:15:42.282Z,1015.54394495
2018-05-01T00:15:54.703Z,1015.54394495
2018-05-01T00:16:07.110Z,1015.51008107
2018-05-01T00:16:19.526Z,1015.51008107
2018-05-01T00:16:31.937Z,1015.51008107
2018-05-01T00:16:44.370Z,1015.51008107
2018-05-01T00:16:56.780Z,1015.51008107
2018-05-01T00:17:09.196Z,1015.4423533
2018-05-01T00:17:21.597Z,1015.4423533
2018-05-01T00:17:34.168Z,1015.4423533
2018-05-01T00:17:46.577Z,1015.4423533
2018-05-01T00:17:58.986Z,1015.4423533
2018-05-01T00:18:11.387Z,1015.37462554
2018-05-01T00:18:24.022Z,1015.37462554
2018-05-01T00:18:36.420Z,1015.37462554
2018-05-01T00:18:49.001Z,1015.37462554
2018-05-01T00:19:01.417Z,1015.4423533
2018-05-01T00:19:13.840Z,1015.4423533
2018-05-01T00:19:26.250Z,1015.4423533
2018-05-01T00:19:38.660Z,1015.4423533
2018-05-01T00:19:51.076Z,1015.4423533
2018-05-01T00:20:03.484Z,1015.47621718
2018-05-01T00:20:15.910Z,1015.47621718
2018-05-01T00:20:28.341Z,1015.47621718
2018-05-01T00:20:40.755Z,1015.47621718
2018-05-01T00:20:53.184Z,1015.47621718
2018-05-01T00:21:05.602Z,1015.4423533
2018-05-01T00:21:18.009Z,1015.4423533
2018-05-01T00:21:30.419Z,1015.4423533
2018-05-01T00:21:42.831Z,1015.4423533
2018-05-01T00:21:55.229Z,1015.4423533
2018-05-01T00:22:07.651Z,1015.40848942
2018-05-01T00:22:20.061Z,1015.40848942
2018-05-01T00:22:32.471Z,1015.40848942
2018-05-01T00:22:44.882Z,1015.40848942
2018-05-01T00:22:57.300Z,1015.40848942
2018-05-01T00:23:09.707Z,1015.47621718
2018-05-01T00:23:22.134Z,1015.47621718
2018-05-01T00:23:34.553Z,1015.47621718
2018-05-01T00:23:47.085Z,1015.47621718
2018-05-01T00:23:59.478Z,1015.47621718
2018-05-01T00:24:11.891Z,1015.47621718
2018-05-01T00:24:24.309Z,1015.47621718
2018-05-01T00:24:36.724Z,1015.47621718
2018-05-01T00:24:49.128Z,1015.47621718
2018-05-01T00:25:01.549Z,1015.47621718
2018-05-01T00:25:13.969Z,1015.47621718
2018-05-01T00:25:26.373Z,1015.47621718
2018-05-01T00:25:38.787Z,1015.47621718
2018-05-01T00:25:51.190Z,1015.47621718
2018-05-01T00:26:03.590Z,1015.47621718
2018-05-01T00:26:16.098Z,1015.47621718
2018-05-01T00:26:28.494Z,1015.47621718
2018-05-01T00:26:40.899Z,1015.47621718
2018-05-01T00:26:53.317Z,1015.47621718
2018-05-01T00:27:05.740Z,1015.4423533
2018-05-01T00:27:18.169Z,1015.4423533
2018-05-01T00:27:30.573Z,1015.4423533
2018-05-01T00:27:42.978Z,1015.4423533
2018-05-01T00:27:55.382Z,1015.4423533
2018-05-01T00:28:07.876Z,1015.40848942
2018-05-01T00:28:20.277Z,1015.40848942
2018-05-01T00:28:32.682Z,1015.40848942
2018-05-01T00:28:45.178Z,1015.40848942
2018-05-01T00:28:57.594Z,1015.40848942
2018-05-01T00:29:10.175Z,1015.37462554
2018-05-01T00:29:22.583Z,1015.37462554
2018-05-01T00:29:35.007Z,1015.37462554
2018-05-01T00:29:47.497Z,1015.37462554
2018-05-01T00:29:59.913Z,1015.37462554
2018-05-01T00:30:12.323Z,1015.54394495
2018-05-01T00:30:24.725Z,1015.54394495
2018-05-01T00:30:37.128Z,1015.54394495
2018-05-01T00:30:49.535Z,1015.54394495
2018-05-01T00:31:01.944Z,1015.61167271
2018-05-01T00:31:14.444Z,1015.61167271
2018-05-01T00:31:26.852Z,1015.61167271
2018-05-01T00:31:39.256Z,1015.61167271
2018-05-01T00:31:51.660Z,1015.61167271
2018-05-01T00:32:04.151Z,1015.61167271
2018-05-01T00:32:16.555Z,1015.61167271
2018-05-01T00:32:28.971Z,1015.61167271
2018-05-01T00:32:41.381Z,1015.61167271
2018-05-01T00:32:53.799Z,1015.61167271
2018-05-01T00:33:06.202Z,1015.67940047
2018-05-01T00:33:18.748Z,1015.67940047
2018-05-01T00:33:31.146Z,1015.67940047
2018-05-01T00:33:43.578Z,1015.67940047
2018-05-01T00:33:55.976Z,1015.67940047
2018-05-01T00:34:08.393Z,1015.67940047
2018-05-01T00:34:20.873Z,1015.67940047
2018-05-01T00:34:33.312Z,1015.67940047
2018-05-01T00:34:45.721Z,1015.67940047
2018-05-01T00:34:58.142Z,1015.67940047
2018-05-01T00:35:10.558Z,1015.61167271
2018-05-01T00:35:22.987Z,1015.61167271
2018-05-01T00:35:35.474Z,1015.61167271
2018-05-01T00:35:47.878Z,1015.61167271
2018-05-01T00:36:00.310Z,1015.61167271
2018-05-01T00:36:12.710Z,1015.51008107
2018-05-01T00:36:25.118Z,1015.51008107
2018-05-01T00:36:37.533Z,1015.51008107
2018-05-01T00:36:49.957Z,1015.51008107
2018-05-01T00:37:02.372Z,1015.61167271
2018-05-01T00:37:14.790Z,1015.61167271
2018-05-01T00:37:27.198Z,1015.61167271
2018-05-01T00:37:39.638Z,1015.61167271
2018-05-01T00:37:52.377Z,1015.61167271
2018-05-01T00:38:04.789Z,1015.51008107
2018-05-01T00:38:17.192Z,1015.51008107
2018-05-01T00:38:29.660Z,1015.51008107
2018-05-01T00:38:42.074Z,1015.51008107
2018-05-01T00:38:54.509Z,1015.51008107
2018-05-01T00:39:06.918Z,1015.54394495
2018-05-01T00:39:19.321Z,1015.54394495
2018-05-01T00:39:31.804Z,1015.54394495
2018-05-01T00:39:44.204Z,1015.54394495
2018-05-01T00:39:56.613Z,1015.54394495
2018-05-01T00:40:09.012Z,1015.61167271
2018-05-01T00:40:21.421Z,1015.61167271
2018-05-01T00:40:33.815Z,1015.61167271
2018-05-01T00:40:46.228Z,1015.61167271
2018-05-01T00:40:58.649Z,1015.61167271
2018-05-01T00:41:11.075Z,1015.64553659
2018-05-01T00:41:23.482Z,1015.64553659
2018-05-01T00:41:35.880Z,1015.64553659
2018-05-01T00:41:48.288Z,1015.64553659
2018-05-01T00:42:00.696Z,1015.64553659
2018-05-01T00:42:13.100Z,1015.64553659
2018-05-01T00:42:25.516Z,1015.64553659
2018-05-01T00:42:37.952Z,1015.64553659
2018-05-01T00:42:50.386Z,1015.64553659
2018-05-01T00:43:02.807Z,1015.57780883
2018-05-01T00:43:15.231Z,1015.57780883
2018-05-01T00:43:27.661Z,1015.57780883
2018-05-01T00:43:40.099Z,1015.57780883
2018-05-01T00:43:52.494Z,1015.57780883
2018-05-01T00:44:04.890Z,1015.71326436
2018-05-01T00:44:17.301Z,1015.71326436
2018-05-01T00:44:29.713Z,1015.71326436
2018-05-01T00:44:42.109Z,1015.71326436
2018-05-01T00:44:54.515Z,1015.71326436
2018-05-01T00:45:06.946Z,1015.74712824
2018-05-01T00:45:19.411Z,1015.74712824
2018-05-01T00:45:31.825Z,1015.74712824
2018-05-01T00:45:44.249Z,1015.74712824
2018-05-01T00:45:56.834Z,1015.74712824
2018-05-01T00:46:09.249Z,1015.78099212
2018-05-01T00:46:21.651Z,1015.78099212
2018-05-01T00:46:34.065Z,1015.78099212
2018-05-01T00:46:46.490Z,1015.78099212
2018-05-01T00:46:58.918Z,1015.78099212
2018-05-01T00:47:11.333Z,1015.84871988
2018-05-01T00:47:23.748Z,1015.84871988
2018-05-01T00:47:36.152Z,1015.84871988
2018-05-01T00:47:48.575Z,1015.84871988
2018-05-01T00:48:00.987Z,1015.95031153
2018-05-01T00:48:13.569Z,1015.95031153
2018-05-01T00:48:25.969Z,1015.95031153
2018-05-01T00:48:38.381Z,1015.95031153
2018-05-01T00:48:50.797Z,1015.95031153
2018-05-01T00:49:03.224Z,1015.98417541
2018-05-01T00:49:15.642Z,1015.98417541
2018-05-01T00:49:28.142Z,1015.98417541
2018-05-01T00:49:40.543Z,1015.98417541
2018-05-01T00:49:52.952Z,1015.98417541
2018-05-01T00:50:05.364Z,1016.01803929
2018-05-01T00:50:17.782Z,1016.01803929
2018-05-01T00:50:30.192Z,1016.01803929
2018-05-01T00:50:42.615Z,1016.01803929
2018-05-01T00:50:55.094Z,1016.01803929
2018-05-01T00:51:07.489Z,1016.01803929
2018-05-01T00:51:19.969Z,1016.01803929
2018-05-01T00:51:32.932Z,1016.01803929
2018-05-01T00:51:46.325Z,1016.01803929
2018-05-01T00:51:59.311Z,1016.01803929
2018-05-01T00:52:11.718Z,1016.01803929
2018-05-01T00:52:24.111Z,1016.01803929
2018-05-01T00:52:36.595Z,1016.01803929
2018-05-01T00:52:49.017Z,1016.01803929
2018-05-01T00:53:01.440Z,1015.98417541
2018-05-01T00:53:13.914Z,1015.98417541
2018-05-01T00:53:26.309Z,1015.98417541
2018-05-01T00:53:38.798Z,1015.98417541
2018-05-01T00:53:51.199Z,1015.98417541
2018-05-01T00:54:03.680Z,1016.01803929
2018-05-01T00:54:16.078Z,1016.01803929
2018-05-01T00:54:28.480Z,1016.01803929
2018-05-01T00:54:40.883Z,1016.01803929
2018-05-01T00:54:53.287Z,1016.01803929
2018-05-01T00:55:05.721Z,1015.98417541
2018-05-01T00:55:18.207Z,1015.98417541
2018-05-01T00:55:30.610Z,1015.98417541
2018-05-01T00:55:43.023Z,1015.98417541
2018-05-01T00:55:55.445Z,1015.98417541
2018-05-01T00:56:07.949Z,1016.05190317
2018-05-01T00:56:20.366Z,1016.05190317
2018-05-01T00:56:32.765Z,1016.05190317
2018-05-01T00:56:45.241Z,1016.05190317
2018-05-01T00:56:57.647Z,1016.05190317
2018-05-01T00:57:10.087Z,1015.95031153
2018-05-01T00:57:22.488Z,1015.95031153
2018-05-01T00:57:34.898Z,1015.95031153
2018-05-01T00:57:47.306Z,1015.95031153
2018-05-01T00:57:59.811Z,1015.95031153
2018-05-01T00:58:12.325Z,1016.01803929
2018-05-01T00:58:24.745Z,1016.01803929
2018-05-01T00:58:37.241Z,1016.01803929
2018-05-01T00:58:49.657Z,1016.01803929
2018-05-01T00:59:02.077Z,1015.95031153
2018-05-01T00:59:14.491Z,1015.95031153
2018-05-01T00:59:26.924Z,1015.95031153
2018-05-01T00:59:39.324Z,1015.95031153
2018-05-01T00:59:51.942Z,1015.95031153
2018-05-01T01:00:04.371Z,1015.95031153
2018-05-01T01:00:16.976Z,1015.95031153
2018-05-01T01:00:29.410Z,1015.95031153
2018-05-01T01:00:41.866Z,1015.95031153
2018-05-01T01:00:54.306Z,1015.95031153
2018-05-01T01:01:06.747Z,1016.05190317
2018-05-01T01:01:19.180Z,1016.05190317
2018-05-01T01:01:31.700Z,1016.05190317
2018-05-01T01:01:44.126Z,1016.05190317
2018-05-01T01:01:56.628Z,1016.05190317
2018-05-01T01:02:09.052Z,1016.05190317
2018-05-01T01:02:21.460Z,1016.05190317
2018-05-01T01:02:33.894Z,1016.05190317
2018-05-01T01:02:46.317Z,1016.05190317
2018-05-01T01:02:58.730Z,1016.05190317
2018-05-01T01:03:11.165Z,1016.01803929
2018-05-01T01:03:23.595Z,1016.01803929
2018-05-01T01:03:36.069Z,1016.01803929
2018-05-01T01:03:49.106Z,1016.01803929
2018-05-01T01:04:01.545Z,1016.01803929
2018-05-01T01:04:13.952Z,1016.01803929
2018-05-01T01:04:26.361Z,1016.01803929
2018-05-01T01:04:38.768Z,1016.01803929
2018-05-01T01:04:51.190Z,1016.01803929
2018-05-01T01:05:03.621Z,1015.95031153
2018-05-01T01:05:16.088Z,1015.95031153
2018-05-01T01:05:28.584Z,1015.95031153
2018-05-01T01:05:41.132Z,1015.95031153
2018-05-01T01:05:53.562Z,1015.95031153
2018-05-01T01:06:05.976Z,1015.84871988
2018-05-01T01:06:18.382Z,1015.84871988
2018-05-01T01:06:30.783Z,1015.84871988
2018-05-01T01:06:43.181Z,1015.84871988
2018-05-01T01:06:55.600Z,1015.84871988
2018-05-01T01:07:08.005Z,1015.88258376
2018-05-01T01:07:20.413Z,1015.88258376
2018-05-01T01:07:32.810Z,1015.88258376
2018-05-01T01:07:45.234Z,1015.88258376
2018-05-01T01:07:57.668Z,1015.88258376
2018-05-01T01:08:10.079Z,1015.91644764
2018-05-01T01:08:22.498Z,1015.91644764
2018-05-01T01:08:34.909Z,1015.91644764
2018-05-01T01:08:47.314Z,1015.91644764
2018-05-01T01:08:59.766Z,1015.91644764
2018-05-01T01:09:12.188Z,1015.88258376
2018-05-01T01:09:24.604Z,1015.88258376
2018-05-01T01:09:37.019Z,1015.88258376
2018-05-01T01:09:49.424Z,1015.88258376
2018-05-01T01:10:01.842Z,1015.91644764
2018-05-01T01:10:14.245Z,1015.91644764
2018-05-01T01:10:26.727Z,1015.91644764
2018-05-01T01:10:39.141Z,1015.91644764
2018-05-01T01:10:51.569Z,1015.91644764
2018-05-01T01:11:03.990Z,1015.84871988
2018-05-01T01:11:16.404Z,1015.84871988
2018-05-01T01:11:28.801Z,1015.84871988
2018-05-01T01:11:41.211Z,1015.84871988
2018-05-01T01:11:53.606Z,1015.84871988
2018-05-01T01:12:06.009Z,1015.84871988
2018-05-01T01:12:18.424Z,1015.84871988
2018-05-01T01:12:30.821Z,1015.84871988
2018-05-01T01:12:43.225Z,1015.84871988
2018-05-01T01:12:55.624Z,1015.84871988
2018-05-01T01:13:08.043Z,1015.814856
2018-05-01T01:13:20.463Z,1015.814856
2018-05-01T01:13:32.879Z,1015.814856
2018-05-01T01:13:45.308Z,1015.814856
2018-05-01T01:13:57.767Z,1015.814856
2018-05-01T01:14:10.180Z,1015.84871988
2018-05-01T01:14:22.591Z,1015.84871988
2018-05-01T01:14:35.032Z,1015.84871988
2018-05-01T01:14:47.435Z,1015.84871988
2018-05-01T01:14:59.845Z,1015.84871988
2018-05-01T01:15:12.266Z,1015.88258376
2018-05-01T01:15:24.681Z,1015.88258376
2018-05-01T01:15:37.083Z,1015.88258376
2018-05-01T01:15:49.513Z,1015.88258376
2018-05-01T01:16:01.932Z,1015.814856
2018-05-01T01:16:14.335Z,1015.814856
2018-05-01T01:16:26.743Z,1015.814856
2018-05-01T01:16:39.195Z,1015.814856
2018-05-01T01:16:51.606Z,1015.814856
2018-05-01T01:17:04.008Z,1015.74712824
2018-05-01T01:17:16.466Z,1015.74712824
2018-05-01T01:17:28.878Z,1015.74712824
2018-05-01T01:17:41.303Z,1015.74712824
2018-05-01T01:17:53.718Z,1015.74712824
2018-05-01T01:18:06.155Z,1015.84871988
2018-05-01T01:18:18.572Z,1015.84871988
2018-05-01T01:18:31.172Z,1015.84871988
2018-05-01T01:18:43.763Z,1015.84871988
2018-05-01T01:18:56.185Z,1015.84871988
2018-05-01T01:19:08.593Z,1015.78099212
2018-05-01T01:19:20.983Z,1015.78099212
2018-05-01T01:19:33.396Z,1015.78099212
2018-05-01T01:19:45.808Z,1015.78099212
2018-05-01T01:19:58.245Z,1015.78099212
2018-05-01T01:20:10.672Z,1015.84871988
2018-05-01T01:20:23.083Z,1015.84871988
2018-05-01T01:20:35.489Z,1015.84871988
2018-05-01T01:20:47.901Z,1015.84871988
2018-05-01T01:21:00.308Z,1015.84871988
2018-05-01T01:21:12.712Z,1015.814856
2018-05-01T01:21:25.120Z,1015.814856
2018-05-01T01:21:37.543Z,1015.814856
2018-05-01T01:21:49.950Z,1015.814856
2018-05-01T01:22:02.363Z,1015.78099212
2018-05-01T01:22:14.859Z,1015.78099212
2018-05-01T01:22:27.265Z,1015.78099212
2018-05-01T01:22:39.677Z,1015.78099212
2018-05-01T01:22:52.088Z,1015.78099212
2018-05-01T01:23:04.490Z,1015.74712824
2018-05-01T01:23:16.909Z,1015.74712824
2018-05-01T01:23:29.318Z,1015.74712824
2018-05-01T01:23:41.928Z,1015.74712824
2018-05-01T01:23:54.342Z,1015.74712824
2018-05-01T01:24:06.750Z,1015.814856
2018-05-01T01:24:19.179Z,1015.814856
2018-05-01T01:24:31.601Z,1015.814856
2018-05-01T01:24:44.005Z,1015.814856
2018-05-01T01:24:56.421Z,1015.814856
2018-05-01T01:25:08.824Z,1015.67940047
2018-05-01T01:25:21.232Z,1015.67940047
2018-05-01T01:25:33.639Z,1015.67940047
2018-05-01T01:25:46.102Z,1015.67940047
2018-05-01T01:25:58.503Z,1015.67940047
2018-05-01T01:26:10.918Z,1015.78099212
2018-05-01T01:26:23.328Z,1015.78099212
2018-05-01T01:26:35.735Z,1015.78099212
2018-05-01T01:26:48.193Z,1015.78099212
2018-05-01T01:27:00.612Z,1015.78099212
2018-05-01T01:27:13.010Z,1015.78099212
2018-05-01T01:27:25.440Z,1015.78099212
2018-05-01T01:27:37.861Z,1015.78099212
2018-05-01T01:27:50.288Z,1015.78099212
2018-05-01T01:28:02.694Z,1015.74712824
2018-05-01T01:28:15.096Z,1015.74712824
2018-05-01T01:28:27.507Z,1015.74712824
2018-05-01T01:28:39.945Z,1015.74712824
2018-05-01T01:28:52.424Z,1015.74712824
2018-05-01T01:29:04.828Z,1015.814856
2018-05-01T01:29:17.267Z,1015.814856
2018-05-01T01:29:29.685Z,1015.814856
2018-05-01T01:29:42.149Z,1015.814856
2018-05-01T01:29:54.559Z,1015.814856
2018-05-01T01:30:06.978Z,1015.814856
2018-05-01T01:30:19.378Z,1015.814856
2018-05-01T01:30:31.902Z,1015.814856
2018-05-01T01:30:44.311Z,1015.814856
2018-05-01T01:30:56.707Z,1015.814856
2018-05-01T01:31:09.131Z,1015.84871988
2018-05-01T01:31:21.542Z,1015.84871988
2018-05-01T01:31:33.975Z,1015.84871988
2018-05-01T01:31:46.387Z,1015.84871988
2018-05-01T01:31:58.810Z,1015.84871988
2018-05-01T01:32:11.226Z,1015.98417541
2018-05-01T01:32:23.645Z,1015.98417541
2018-05-01T01:32:36.053Z,1015.98417541
2018-05-01T01:32:48.464Z,1015.98417541
2018-05-01T01:33:00.870Z,1015.84871988
2018-05-01T01:33:13.282Z,1015.84871988
2018-05-01T01:33:25.869Z,1015.84871988
2018-05-01T01:33:38.268Z,1015.84871988
2018-05-01T01:33:50.675Z,1015.84871988
2018-05-01T01:34:03.077Z,1015.91644764
2018-05-01T01:34:15.470Z,1015.91644764
2018-05-01T01:34:27.920Z,1015.91644764
2018-05-01T01:34:40.329Z,1015.91644764
2018-05-01T01:34:52.752Z,1015.91644764
2018-05-01T01:35:05.243Z,1015.91644764
2018-05-01T01:35:17.650Z,1015.91644764
2018-05-01T01:35:30.067Z,1015.91644764
2018-05-01T01:35:42.561Z,1015.91644764
2018-05-01T01:35:54.961Z,1015.91644764
2018-05-01T01:36:07.369Z,1015.98417541
2018-05-01T01:36:19.785Z,1015.98417541
2018-05-01T01:36:32.189Z,1015.98417541
2018-05-01T01:36:44.636Z,1015.98417541
2018-05-01T01:36:57.048Z,1015.98417541
2018-05-01T01:37:09.469Z,1016.01803929
2018-05-01T01:37:21.873Z,1016.01803929
2018-05-01T01:37:34.367Z,1016.01803929
2018-05-01T01:37:46.793Z,1016.01803929
2018-05-01T01:37:59.613Z,1016.01803929
2018-05-01T01:38:12.036Z,1015.88258376
2018-05-01T01:38:24.449Z,1015.88258376
2018-05-01T01:38:36.889Z,1015.88258376
2018-05-01T01:38:49.299Z,1015.88258376
2018-05-01T01:39:01.713Z,1015.88258376
2018-05-01T01:39:14.129Z,1015.88258376
2018-05-01T01:39:26.533Z,1015.88258376
2018-05-01T01:39:38.964Z,1015.88258376
2018-05-01T01:39:51.402Z,1015.88258376
2018-05-01T01:40:03.960Z,1015.88258376
2018-05-01T01:40:16.392Z,1015.88258376
2018-05-01T01:40:28.800Z,1015.88258376
2018-05-01T01:40:41.219Z,1015.88258376
2018-05-01T01:40:53.616Z,1015.88258376
2018-05-01T01:41:06.047Z,1015.88258376
2018-05-01T01:41:18.448Z,1015.88258376
2018-05-01T01:41:30.862Z,1015.88258376
2018-05-01T01:41:43.262Z,1015.88258376
2018-05-01T01:41:55.668Z,1015.88258376
2018-05-01T01:42:08.085Z,1015.814856
2018-05-01T01:42:20.498Z,1015.814856
2018-05-01T01:42:32.976Z,1015.814856
2018-05-01T01:42:45.384Z,1015.814856
2018-05-01T01:42:57.782Z,1015.814856
2018-05-01T01:43:10.188Z,1015.88258376
2018-05-01T01:43:22.586Z,1015.88258376
2018-05-01T01:43:34.990Z,1015.88258376
2018-05-01T01:43:47.385Z,1015.88258376
2018-05-01T01:43:59.785Z,1015.88258376
2018-05-01T01:44:12.214Z,1015.814856
2018-05-01T01:44:24.609Z,1015.814856
2018-05-01T01:44:37.042Z,1015.814856
2018-05-01T01:44:49.436Z,1015.814856
2018-05-01T01:45:01.860Z,1015.84871988
2018-05-01T01:45:14.269Z,1015.84871988
2018-05-01T01:45:26.660Z,1015.84871988
2018-05-01T01:45:39.063Z,1015.84871988
2018-05-01T01:45:51.607Z,1015.84871988
2018-05-01T01:46:04.012Z,1015.88258376
2018-05-01T01:46:16.434Z,1015.88258376
2018-05-01T01:46:28.844Z,1015.88258376
2018-05-01T01:46:41.239Z,1015.88258376
2018-05-01T01:46:53.662Z,1015.88258376
2018-05-01T01:47:06.082Z,1015.84871988
2018-05-01T01:47:18.509Z,1015.84871988
2018-05-01T01:47:30.920Z,1015.84871988
2018-05-01T01:47:43.327Z,1015.84871988
2018-05-01T01:47:55.806Z,1015.84871988
2018-05-01T01:48:08.269Z,1015.95031153
2018-05-01T01:48:20.750Z,1015.95031153
2018-05-01T01:48:33.149Z,1015.95031153
2018-05-01T01:48:45.563Z,1015.95031153
2018-05-01T01:48:57.966Z,1015.95031153
2018-05-01T01:49:10.421Z,1016.01803929
2018-05-01T01:49:22.831Z,1016.01803929
2018-05-01T01:49:35.251Z,1016.01803929
2018-05-01T01:49:47.656Z,1016.01803929
2018-05-01T01:50:00.058Z,1016.01803929
2018-05-01T01:50:12.470Z,1016.05190317
2018-05-01T01:50:24.869Z,1016.05190317
2018-05-01T01:50:37.264Z,1016.05190317
2018-05-01T01:50:49.758Z,1016.05190317
2018-05-01T01:51:02.157Z,1015.91644764
2018-05-01T01:51:14.571Z,1015.91644764
2018-05-01T01:51:26.982Z,1015.91644764
2018-05-01T01:51:39.394Z,1015.91644764
2018-05-01T01:51:51.807Z,1015.91644764
2018-05-01T01:52:04.252Z,1015.91644764
2018-05-01T01:52:16.667Z,1015.91644764
2018-05-01T01:52:29.091Z,1015.91644764
2018-05-01T01:52:41.498Z,1015.91644764
2018-05-01T01:52:53.919Z,1015.91644764
2018-05-01T01:53:06.344Z,1015.95031153
2018-05-01T01:53:18.793Z,1015.95031153
2018-05-01T01:53:31.272Z,1015.95031153
2018-05-01T01:53:43.672Z,1015.95031153
2018-05-01T01:53:56.089Z,1015.95031153
2018-05-01T01:54:08.484Z,1015.98417541
2018-05-01T01:54:20.901Z,1015.98417541
2018-05-01T01:54:33.323Z,1015.98417541
2018-05-01T01:54:45.742Z,1015.98417541
2018-05-01T01:54:58.150Z,1015.98417541
2018-05-01T01:55:10.549Z,1016.05190317
2018-05-01T01:55:22.951Z,1016.05190317
2018-05-01T01:55:35.357Z,1016.05190317
2018-05-01T01:55:47.764Z,1016.05190317
2018-05-01T01:56:00.165Z,1016.05190317
2018-05-01T01:56:12.598Z,1016.05190317
2018-05-01T01:56:25.104Z,1016.05190317
2018-05-01T01:56:37.513Z,1016.05190317
2018-05-01T01:56:49.941Z,1016.05190317
2018-05-01T01:57:02.420Z,1015.95031153
2018-05-01T01:57:14.918Z,1015.95031153
2018-05-01T01:57:27.418Z,1015.95031153
2018-05-01T01:57:39.836Z,1015.95031153
2018-05-01T01:57:52.346Z,1015.95031153
2018-05-01T01:58:04.750Z,1016.05190317
2018-05-01T01:58:17.156Z,1016.05190317
2018-05-01T01:58:29.637Z,1016.05190317
2018-05-01T01:58:42.042Z,1016.05190317
2018-05-01T01:58:54.454Z,1016.05190317
2018-05-01T01:59:06.848Z,1016.11963093
2018-05-01T01:59:19.257Z,1016.11963093
2018-05-01T01:59:31.682Z,1016.11963093
2018-05-01T01:59:44.102Z,1016.11963093
2018-05-01T01:59:56.516Z,1016.11963093
2018-05-01T02:00:08.963Z,1016.05190317
2018-05-01T02:00:21.383Z,1016.05190317
2018-05-01T02:00:33.843Z,1016.05190317
2018-05-01T02:00:46.291Z,1016.05190317
2018-05-01T02:00:58.732Z,1016.05190317
2018-05-01T02:01:11.160Z,1016.15349482
2018-05-01T02:01:23.598Z,1016.15349482
2018-05-01T02:01:36.022Z,1016.15349482
2018-05-01T02:01:48.462Z,1016.15349482
2018-05-01T02:02:00.874Z,1016.08576705
2018-05-01T02:02:13.294Z,1016.08576705
2018-05-01T02:02:25.708Z,1016.08576705
2018-05-01T02:02:38.154Z,1016.08576705
2018-05-01T02:02:50.551Z,1016.08576705
2018-05-01T02:03:03.019Z,1016.08576705
2018-05-01T02:03:15.430Z,1016.08576705
2018-05-01T02:03:27.850Z,1016.08576705
2018-05-01T02:03:40.264Z,1016.08576705
2018-05-01T02:03:52.763Z,1016.08576705
2018-05-01T02:04:05.174Z,1016.15349482
2018-05-01T02:04:17.603Z,1016.15349482
2018-05-01T02:04:30.016Z,1016.15349482
2018-05-01T02:04:42.536Z,1016.15349482
2018-05-01T02:04:54.956Z,1016.15349482
2018-05-01T02:05:07.394Z,1016.11963093
2018-05-01T02:05:19.839Z,1016.11963093
2018-05-01T02:05:32.260Z,1016.11963093
2018-05-01T02:05:44.695Z,1016.11963093
2018-05-01T02:05:57.118Z,1016.11963093
2018-05-01T02:06:09.521Z,1016.08576705
2018-05-01T02:06:21.940Z,1016.08576705
2018-05-01T02:06:34.352Z,1016.08576705
2018-05-01T02:06:46.764Z,1016.08576705
2018-05-01T02:06:59.175Z,1016.08576705
2018-05-01T02:07:11.598Z,1016.08576705
2018-05-01T02:07:24.015Z,1016.08576705
2018-05-01T02:07:36.444Z,1016.08576705
2018-05-01T02:07:48.869Z,1016.08576705